sensor_id;sensor_type;location;lat;lon;timestamp;pressure;altitude;pressure_sealevel;temperature;humidity
24892;BME280;12954;50.688;10.908;2022-10-03T00:01:10;96191.16;;;9.44;63.68
24892;BME280;12954;50.688;10.908;2022-10-03T00:03:47;96192.81;;;9.45;63.56
24892;BME280;12954;50.688;10.908;2022-10-03T00:06:27;96197.88;;;9.42;63.71
24892;BME280;12954;50.688;10.908;2022-10-03T00:09:28;96204.28;;;9.36;63.95
24892;BME280;12954;50.688;10.908;2022-10-03T00:12:12;96201.34;;;9.37;63.92
24892;BME280;12954;50.688;10.908;2022-10-03T00:14:48;96205.94;;;9.37;64.05
24892;BME280;12954;50.688;10.908;2022-10-03T00:17:24;96214.56;;;9.39;64.07
24892;BME280;12954;50.688;10.908;2022-10-03T00:20:04;96213.31;;;9.52;63.61
24892;BME280;12954;50.688;10.908;2022-10-03T00:22:41;96223.22;;;9.41;63.93
24892;BME280;12954;50.688;10.908;2022-10-03T00:25:26;96224.22;;;9.35;64.08
24892;BME280;12954;50.688;10.908;2022-10-03T00:28:12;96216.91;;;9.30;64.22
24892;BME280;12954;50.688;10.908;2022-10-03T00:31:01;96214.72;;;9.27;64.09
24892;BME280;12954;50.688;10.908;2022-10-03T00:33:39;96225.84;;;9.36;64.10
24892;BME280;12954;50.688;10.908;2022-10-03T00:36:17;96233.97;;;9.41;63.99
24892;BME280;12954;50.688;10.908;2022-10-03T00:39:02;96210.47;;;9.31;63.92
24892;BME280;12954;50.688;10.908;2022-10-03T00:41:50;96238.84;;;9.44;63.81
24892;BME280;12954;50.688;10.908;2022-10-03T00:47:57;96250.66;;;9.38;64.00
24892;BME280;12954;50.688;10.908;2022-10-03T00:53:55;96248.91;;;9.27;64.22
24892;BME280;12954;50.688;10.908;2022-10-03T00:56:45;96249.22;;;9.30;63.96
24892;BME280;12954;50.688;10.908;2022-10-03T00:59:27;96249.44;;;9.24;64.00
24892;BME280;12954;50.688;10.908;2022-10-03T01:02:20;96242.13;;;9.19;63.96
24892;BME280;12954;50.688;10.908;2022-10-03T01:04:59;96252.56;;;9.16;64.10
24892;BME280;12954;50.688;10.908;2022-10-03T01:08:05;96253.69;;;9.20;63.80
24892;BME280;12954;50.688;10.908;2022-10-03T01:10:44;96238.13;;;9.00;63.86
24892;BME280;12954;50.688;10.908;2022-10-03T01:13:35;96251.47;;;9.12;63.85
24892;BME280;12954;50.688;10.908;2022-10-03T01:16:15;96255.84;;;9.18;63.63
24892;BME280;12954;50.688;10.908;2022-10-03T01:18:56;96248.56;;;9.18;63.51
24892;BME280;12954;50.688;10.908;2022-10-03T01:21:38;96253.06;;;9.13;63.67
24892;BME280;12954;50.688;10.908;2022-10-03T01:24:29;96240.72;;;9.12;63.47
24892;BME280;12954;50.688;10.908;2022-10-03T01:27:03;96245.78;;;9.08;63.71
24892;BME280;12954;50.688;10.908;2022-10-03T01:29:43;96242.91;;;9.15;63.43
24892;BME280;12954;50.688;10.908;2022-10-03T01:32:36;96245.78;;;9.08;63.65
24892;BME280;12954;50.688;10.908;2022-10-03T01:35:18;96245.28;;;9.11;63.66
24892;BME280;12954;50.688;10.908;2022-10-03T01:37:56;96253.34;;;9.11;63.67
24892;BME280;12954;50.688;10.908;2022-10-03T01:40:29;96247.25;;;8.99;63.56
24892;BME280;12954;50.688;10.908;2022-10-03T01:43:11;96258.16;;;9.09;63.94
24892;BME280;12954;50.688;10.908;2022-10-03T01:45:51;96256.34;;;9.15;63.91
24892;BME280;12954;50.688;10.908;2022-10-03T01:48:29;96250.16;;;9.14;63.91
24892;BME280;12954;50.688;10.908;2022-10-03T01:51:03;96218.72;;;8.98;63.79
24892;BME280;12954;50.688;10.908;2022-10-03T01:53:45;96207.72;;;9.00;63.56
24892;BME280;12954;50.688;10.908;2022-10-03T01:56:23;96241.09;;;9.04;63.62
24892;BME280;12954;50.688;10.908;2022-10-03T01:58:59;96256.63;;;9.18;63.79
24892;BME280;12954;50.688;10.908;2022-10-03T02:01:38;96262.84;;;9.19;63.87
24892;BME280;12954;50.688;10.908;2022-10-03T02:04:14;96256.63;;;9.18;63.99
24892;BME280;12954;50.688;10.908;2022-10-03T02:06:51;96258.56;;;9.23;63.93
24892;BME280;12954;50.688;10.908;2022-10-03T02:09:28;96262.31;;;9.22;63.91
24892;BME280;12954;50.688;10.908;2022-10-03T02:12:12;96247.19;;;9.16;63.90
24892;BME280;12954;50.688;10.908;2022-10-03T02:14:50;96260.22;;;9.24;63.97
24892;BME280;12954;50.688;10.908;2022-10-03T02:17:42;96233.94;;;9.09;63.80
24892;BME280;12954;50.688;10.908;2022-10-03T02:20:23;96266.66;;;9.23;63.92
24892;BME280;12954;50.688;10.908;2022-10-03T02:22:56;96263.16;;;9.22;63.95
24892;BME280;12954;50.688;10.908;2022-10-03T02:25:30;96265.59;;;9.24;63.87
24892;BME280;12954;50.688;10.908;2022-10-03T02:31:26;96268.84;;;9.26;63.71
24892;BME280;12954;50.688;10.908;2022-10-03T02:34:33;96272.06;;;9.28;63.35
24892;BME280;12954;50.688;10.908;2022-10-03T02:37:35;96265.59;;;9.24;63.10
24892;BME280;12954;50.688;10.908;2022-10-03T02:40:45;96268.84;;;9.26;63.24
24892;BME280;12954;50.688;10.908;2022-10-03T02:46:44;96283.63;;;9.23;62.94
24892;BME280;12954;50.688;10.908;2022-10-03T02:49:44;96290.88;;;9.23;62.77
24892;BME280;12954;50.688;10.908;2022-10-03T02:55:28;96291.03;;;9.11;63.15
24892;BME280;12954;50.688;10.908;2022-10-03T03:07:31;96293.84;;;9.00;62.94
24892;BME280;12954;50.688;10.908;2022-10-03T03:10:34;96305.81;;;9.09;62.94
24892;BME280;12954;50.688;10.908;2022-10-03T03:13:33;96304.50;;;9.11;62.81
24892;BME280;12954;50.688;10.908;2022-10-03T03:19:17;96310.38;;;9.08;62.94
24892;BME280;12954;50.688;10.908;2022-10-03T03:21:54;96305.00;;;9.08;62.96
24892;BME280;12954;50.688;10.908;2022-10-03T03:27:40;96319.75;;;9.06;62.50
24892;BME280;12954;50.688;10.908;2022-10-03T03:30:15;96317.56;;;9.03;62.75
24892;BME280;12954;50.688;10.908;2022-10-03T03:32:59;96320.16;;;8.98;62.94
24892;BME280;12954;50.688;10.908;2022-10-03T03:35:39;96325.53;;;8.98;63.01
24892;BME280;12954;50.688;10.908;2022-10-03T03:38:24;96320.75;;;9.00;63.10
24892;BME280;12954;50.688;10.908;2022-10-03T03:41:08;96321.84;;;9.04;63.02
24892;BME280;12954;50.688;10.908;2022-10-03T03:43:57;96294.59;;;8.73;63.19
24892;BME280;12954;50.688;10.908;2022-10-03T03:46:42;96332.06;;;9.02;63.11
24892;BME280;12954;50.688;10.908;2022-10-03T03:49:27;96337.44;;;9.02;63.21
24892;BME280;12954;50.688;10.908;2022-10-03T03:52:13;96337.44;;;9.02;63.43
24892;BME280;12954;50.688;10.908;2022-10-03T03:55:16;96332.63;;;9.04;63.44
24892;BME280;12954;50.688;10.908;2022-10-03T03:58:08;96339.97;;;9.08;63.56
24892;BME280;12954;50.688;10.908;2022-10-03T04:00:52;96337.09;;;9.15;63.26
24892;BME280;12954;50.688;10.908;2022-10-03T04:03:36;96333.31;;;9.16;63.30
24892;BME280;12954;50.688;10.908;2022-10-03T04:06:25;96318.53;;;9.18;62.90
24892;BME280;12954;50.688;10.908;2022-10-03T04:09:27;96317.69;;;9.13;62.97
24892;BME280;12954;50.688;10.908;2022-10-03T04:12:02;96320.56;;;9.06;62.94
24892;BME280;12954;50.688;10.908;2022-10-03T04:14:49;96323.00;;;9.08;62.62
24892;BME280;12954;50.688;10.908;2022-10-03T04:17:33;96326.03;;;8.94;62.78
24892;BME280;12954;50.688;10.908;2022-10-03T04:20:34;96326.56;;;8.91;62.86
24892;BME280;12954;50.688;10.908;2022-10-03T04:23:17;96325.44;;;8.87;62.99
24892;BME280;12954;50.688;10.908;2022-10-03T04:26:10;96323.81;;;8.86;63.11
24892;BME280;12954;50.688;10.908;2022-10-03T04:29:03;96327.06;;;8.88;63.10
24892;BME280;12954;50.688;10.908;2022-10-03T04:31:44;96325.38;;;8.82;63.38
24892;BME280;12954;50.688;10.908;2022-10-03T04:34:26;96331.00;;;8.81;63.38
24892;BME280;12954;50.688;10.908;2022-10-03T04:37:12;96336.06;;;8.77;63.44
24892;BME280;12954;50.688;10.908;2022-10-03T04:39:51;96334.44;;;8.76;63.55
24892;BME280;12954;50.688;10.908;2022-10-03T04:42:35;96273.47;;;8.22;63.46
24892;BME280;12954;50.688;10.908;2022-10-03T04:45:23;96339.03;;;8.76;63.73
24892;BME280;12954;50.688;10.908;2022-10-03T04:47:58;96334.44;;;8.76;63.83
24892;BME280;12954;50.688;10.908;2022-10-03T04:50:38;96332.00;;;8.75;63.94
24892;BME280;12954;50.688;10.908;2022-10-03T04:53:18;96328.00;;;8.77;64.00
24892;BME280;12954;50.688;10.908;2022-10-03T04:55:52;96337.44;;;8.80;63.84
24892;BME280;12954;50.688;10.908;2022-10-03T04:58:33;96332.81;;;8.75;63.89
24892;BME280;12954;50.688;10.908;2022-10-03T05:01:12;96325.31;;;8.77;63.90
24892;BME280;12954;50.688;10.908;2022-10-03T05:03:48;96331.75;;;8.76;64.03
24892;BME280;12954;50.688;10.908;2022-10-03T05:06:30;96325.31;;;8.77;64.04
24892;BME280;12954;50.688;10.908;2022-10-03T05:09:20;96322.31;;;8.74;64.12
24892;BME280;12954;50.688;10.908;2022-10-03T05:11:58;96313.94;;;8.70;63.96
24892;BME280;12954;50.688;10.908;2022-10-03T05:14:46;96332.75;;;8.92;63.68
24892;BME280;12954;50.688;10.908;2022-10-03T05:17:20;96334.88;;;8.90;63.68
24892;BME280;12954;50.688;10.908;2022-10-03T05:20:02;96339.13;;;8.86;63.82
24892;BME280;12954;50.688;10.908;2022-10-03T05:22:44;96339.06;;;8.81;64.05
24892;BME280;12954;50.688;10.908;2022-10-03T05:25:23;96346.16;;;8.87;63.96
24892;BME280;12954;50.688;10.908;2022-10-03T05:28:05;96344.72;;;8.79;64.37
24892;BME280;12954;50.688;10.908;2022-10-03T05:30:40;96342.41;;;8.88;64.08
24892;BME280;12954;50.688;10.908;2022-10-03T05:33:18;96342.91;;;8.85;64.24
24892;BME280;12954;50.688;10.908;2022-10-03T05:36:12;96351.22;;;8.83;64.38
24892;BME280;12954;50.688;10.908;2022-10-03T05:42:17;96350.38;;;8.83;64.41
24892;BME280;12954;50.688;10.908;2022-10-03T05:44:59;96351.78;;;8.85;64.28
24892;BME280;12954;50.688;10.908;2022-10-03T05:47:31;96351.47;;;8.82;64.50
24892;BME280;12954;50.688;10.908;2022-10-03T05:50:30;96363.84;;;8.83;64.42
24892;BME280;12954;50.688;10.908;2022-10-03T05:53:18;96363.59;;;8.84;64.33
24892;BME280;12954;50.688;10.908;2022-10-03T05:56:02;96375.38;;;8.78;64.57
24892;BME280;12954;50.688;10.908;2022-10-03T06:01:37;96369.34;;;8.71;64.75
24892;BME280;12954;50.688;10.908;2022-10-03T06:04:44;96347.38;;;8.58;64.86
24892;BME280;12954;50.688;10.908;2022-10-03T06:07:20;96369.72;;;8.58;65.15
24892;BME280;12954;50.688;10.908;2022-10-03T06:10:09;96369.94;;;8.73;64.66
24892;BME280;12954;50.688;10.908;2022-10-03T06:12:52;96293.88;;;8.18;64.81
24892;BME280;12954;50.688;10.908;2022-10-03T06:15:38;96377.91;;;8.68;64.77
24892;BME280;12954;50.688;10.908;2022-10-03T06:21:50;96387.59;;;8.69;64.81
24892;BME280;12954;50.688;10.908;2022-10-03T06:28:06;96394.25;;;8.83;64.53
24892;BME280;12954;50.688;10.908;2022-10-03T06:30:55;96399.31;;;8.80;64.57
24892;BME280;12954;50.688;10.908;2022-10-03T06:36:51;96408.84;;;8.87;64.23
24892;BME280;12954;50.688;10.908;2022-10-03T06:40:00;96371.47;;;8.69;64.39
24892;BME280;12954;50.688;10.908;2022-10-03T06:52:38;96414.91;;;9.16;64.13
24892;BME280;12954;50.688;10.908;2022-10-03T06:58:50;96429.56;;;9.47;63.40
24892;BME280;12954;50.688;10.908;2022-10-03T07:05:08;96435.91;;;9.63;62.98
24892;BME280;12954;50.688;10.908;2022-10-03T07:11:13;96431.31;;;9.85;62.60
24892;BME280;12954;50.688;10.908;2022-10-03T07:17:17;96435.97;;;9.94;62.54
24892;BME280;12954;50.688;10.908;2022-10-03T07:23:20;96442.84;;;10.07;62.16
24892;BME280;12954;50.688;10.908;2022-10-03T07:29:34;96441.13;;;10.23;62.06
24892;BME280;12954;50.688;10.908;2022-10-03T07:51:04;96475.22;;;10.34;61.97
24892;BME280;12954;50.688;10.908;2022-10-03T07:57:08;96473.69;;;10.43;61.73
24892;BME280;12954;50.688;10.908;2022-10-03T08:06:14;96499.59;;;10.44;61.22
24892;BME280;12954;50.688;10.908;2022-10-03T08:12:27;96493.53;;;10.58;61.44
24892;BME280;12954;50.688;10.908;2022-10-03T08:15:08;96497.31;;;10.63;61.70
24892;BME280;12954;50.688;10.908;2022-10-03T08:20:47;96495.59;;;10.83;60.90
24892;BME280;12954;50.688;10.908;2022-10-03T08:26:18;96489.16;;;10.89;60.63
24892;BME280;12954;50.688;10.908;2022-10-03T08:29:06;96486.44;;;10.89;60.14
24892;BME280;12954;50.688;10.908;2022-10-03T08:35:12;96494.50;;;10.79;58.80
24892;BME280;12954;50.688;10.908;2022-10-03T08:44:21;96487.16;;;10.75;59.14
24892;BME280;12954;50.688;10.908;2022-10-03T08:47:08;96490.47;;;10.82;58.62
24892;BME280;12954;50.688;10.908;2022-10-03T08:53:01;96494.75;;;10.83;58.70
24892;BME280;12954;50.688;10.908;2022-10-03T08:55:47;96493.97;;;10.82;57.37
24892;BME280;12954;50.688;10.908;2022-10-03T08:58:58;96475.09;;;10.82;57.95
24892;BME280;12954;50.688;10.908;2022-10-03T09:01:39;96484.06;;;10.98;57.31
24892;BME280;12954;50.688;10.908;2022-10-03T09:07:41;96473.06;;;11.04;57.46
24892;BME280;12954;50.688;10.908;2022-10-03T09:10:36;96490.44;;;11.24;57.25
24892;BME280;12954;50.688;10.908;2022-10-03T09:13:34;96491.25;;;11.24;57.10
24892;BME280;12954;50.688;10.908;2022-10-03T09:16:35;96496.44;;;11.31;56.99
24892;BME280;12954;50.688;10.908;2022-10-03T09:19:29;96472.56;;;11.12;56.76
24892;BME280;12954;50.688;10.908;2022-10-03T09:22:22;96503.50;;;11.37;57.02
24892;BME280;12954;50.688;10.908;2022-10-03T09:25:27;96505.16;;;11.43;56.82
24892;BME280;12954;50.688;10.908;2022-10-03T09:31:20;96500.28;;;11.40;56.78
24892;BME280;12954;50.688;10.908;2022-10-03T09:34:11;96499.22;;;11.46;55.88
24892;BME280;12954;50.688;10.908;2022-10-03T09:40:38;96497.91;;;11.48;56.43
24892;BME280;12954;50.688;10.908;2022-10-03T09:43:50;96498.22;;;11.52;55.90
24892;BME280;12954;50.688;10.908;2022-10-03T09:46:58;96492.34;;;11.75;55.04
24892;BME280;12954;50.688;10.908;2022-10-03T09:53:30;96505.34;;;11.73;54.56
24892;BME280;12954;50.688;10.908;2022-10-03T09:56:30;96501.53;;;11.69;53.91
24892;BME280;12954;50.688;10.908;2022-10-03T09:59:18;96507.50;;;11.76;54.19
24892;BME280;12954;50.688;10.908;2022-10-03T10:02:01;96496.94;;;11.75;53.79
24892;BME280;12954;50.688;10.908;2022-10-03T10:04:43;96505.94;;;11.90;53.33
24892;BME280;12954;50.688;10.908;2022-10-03T10:07:46;96518.34;;;11.81;52.02
24892;BME280;12954;50.688;10.908;2022-10-03T10:16:47;96496.72;;;11.91;53.52
24892;BME280;12954;50.688;10.908;2022-10-03T10:19:37;96513.03;;;12.16;53.28
24892;BME280;12954;50.688;10.908;2022-10-03T10:22:26;96512.78;;;12.23;52.44
24892;BME280;12954;50.688;10.908;2022-10-03T10:25:22;96398.75;;;11.59;53.08
24892;BME280;12954;50.688;10.908;2022-10-03T10:28:14;96506.59;;;12.53;51.34
24892;BME280;12954;50.688;10.908;2022-10-03T10:34:35;96495.00;;;12.57;51.48
24892;BME280;12954;50.688;10.908;2022-10-03T10:41:17;96501.75;;;12.65;50.63
24892;BME280;12954;50.688;10.908;2022-10-03T10:57:12;96503.06;;;12.47;50.30
24892;BME280;12954;50.688;10.908;2022-10-03T11:00:04;96499.25;;;12.33;49.97
24892;BME280;12954;50.688;10.908;2022-10-03T11:03:24;96505.78;;;12.47;50.40
24892;BME280;12954;50.688;10.908;2022-10-03T11:06:44;96508.78;;;12.56;49.91
24892;BME280;12954;50.688;10.908;2022-10-03T11:09:55;96518.00;;;12.65;49.98
24892;BME280;12954;50.688;10.908;2022-10-03T11:13:12;96507.72;;;12.62;49.27
24892;BME280;12954;50.688;10.908;2022-10-03T11:19:17;96518.00;;;12.65;49.93
24892;BME280;12954;50.688;10.908;2022-10-03T11:28:54;96508.81;;;12.81;49.65
24892;BME280;12954;50.688;10.908;2022-10-03T11:32:00;96508.28;;;12.84;48.73
24892;BME280;12954;50.688;10.908;2022-10-03T11:34:55;96509.34;;;12.73;48.68
24892;BME280;12954;50.688;10.908;2022-10-03T11:37:39;96509.34;;;12.73;49.16
24892;BME280;12954;50.688;10.908;2022-10-03T11:40:32;96516.91;;;12.71;49.18
24892;BME280;12954;50.688;10.908;2022-10-03T11:43:41;96516.91;;;12.71;49.48
24892;BME280;12954;50.688;10.908;2022-10-03T11:46:38;96513.41;;;12.75;48.73
24892;BME280;12954;50.688;10.908;2022-10-03T11:49:27;96512.59;;;12.70;49.15
24892;BME280;12954;50.688;10.908;2022-10-03T11:52:06;96506.91;;;12.66;49.15
24892;BME280;12954;50.688;10.908;2022-10-03T11:54:40;96518.84;;;12.75;48.99
24892;BME280;12954;50.688;10.908;2022-10-03T11:57:16;96519.66;;;12.76;48.95
24892;BME280;12954;50.688;10.908;2022-10-03T11:59:55;96493.09;;;12.58;48.88
24892;BME280;12954;50.688;10.908;2022-10-03T12:02:44;96515.56;;;12.73;48.38
24892;BME280;12954;50.688;10.908;2022-10-03T12:05:25;96510.16;;;12.78;48.48
24892;BME280;12954;50.688;10.908;2022-10-03T12:08:17;96510.44;;;12.77;48.02
24892;BME280;12954;50.688;10.908;2022-10-03T12:11:09;96442.97;;;12.30;48.42
24892;BME280;12954;50.688;10.908;2022-10-03T12:13:57;96508.53;;;12.72;48.66
24892;BME280;12954;50.688;10.908;2022-10-03T12:16:48;96509.59;;;12.76;48.81
24892;BME280;12954;50.688;10.908;2022-10-03T12:19:28;96510.16;;;12.84;48.83
24892;BME280;12954;50.688;10.908;2022-10-03T12:22:04;96514.75;;;12.83;48.83
24892;BME280;12954;50.688;10.908;2022-10-03T12:24:39;96510.16;;;12.94;48.31
24892;BME280;12954;50.688;10.908;2022-10-03T12:27:15;96513.13;;;12.92;48.35
24892;BME280;12954;50.688;10.908;2022-10-03T12:29:54;96506.09;;;12.81;48.41
24892;BME280;12954;50.688;10.908;2022-10-03T12:32:29;96508.81;;;12.86;48.22
24892;BME280;12954;50.688;10.908;2022-10-03T12:35:11;96504.47;;;12.90;48.38
24892;BME280;12954;50.688;10.908;2022-10-03T12:38:11;96506.66;;;12.93;48.37
24892;BME280;12954;50.688;10.908;2022-10-03T12:40:49;96491.22;;;12.78;48.78
24892;BME280;12954;50.688;10.908;2022-10-03T12:43:32;96507.72;;;13.02;48.36
24892;BME280;12954;50.688;10.908;2022-10-03T12:46:10;96497.41;;;13.09;48.39
24892;BME280;12954;50.688;10.908;2022-10-03T12:48:45;96501.50;;;13.02;48.29
24892;BME280;12954;50.688;10.908;2022-10-03T12:51:29;96501.50;;;13.02;48.52
24892;BME280;12954;50.688;10.908;2022-10-03T12:54:07;96491.75;;;12.96;48.72
24892;BME280;12954;50.688;10.908;2022-10-03T12:56:46;96489.84;;;13.01;48.75
24892;BME280;12954;50.688;10.908;2022-10-03T12:59:23;96494.72;;;13.04;48.73
24892;BME280;12954;50.688;10.908;2022-10-03T13:02:16;96491.97;;;13.09;48.72
24892;BME280;12954;50.688;10.908;2022-10-03T13:05:06;96491.97;;;13.09;48.54
24892;BME280;12954;50.688;10.908;2022-10-03T13:07:51;96488.19;;;13.00;48.84
24892;BME280;12954;50.688;10.908;2022-10-03T13:10:32;96493.88;;;13.04;48.93
24892;BME280;12954;50.688;10.908;2022-10-03T13:13:18;96477.66;;;12.99;48.59
24892;BME280;12954;50.688;10.908;2022-10-03T13:16:10;96504.47;;;13.05;48.60
24892;BME280;12954;50.688;10.908;2022-10-03T13:18:50;96493.63;;;13.00;48.63
24892;BME280;12954;50.688;10.908;2022-10-03T13:21:26;96430.56;;;12.54;48.77
24892;BME280;12954;50.688;10.908;2022-10-03T13:24:25;96494.72;;;12.94;48.89
24892;BME280;12954;50.688;10.908;2022-10-03T13:29:52;96490.38;;;12.83;49.42
24892;BME280;12954;50.688;10.908;2022-10-03T13:32:30;96500.16;;;12.84;49.52
24892;BME280;12954;50.688;10.908;2022-10-03T13:35:31;96494.72;;;12.84;49.62
24892;BME280;12954;50.688;10.908;2022-10-03T13:38:42;96485.50;;;12.85;49.90
24892;BME280;12954;50.688;10.908;2022-10-03T13:41:24;96477.66;;;12.84;49.55
24892;BME280;12954;50.688;10.908;2022-10-03T13:43:57;96490.66;;;12.87;49.70
24892;BME280;12954;50.688;10.908;2022-10-03T13:46:31;96462.22;;;12.54;49.99
24892;BME280;12954;50.688;10.908;2022-10-03T13:49:11;96478.22;;;12.75;50.21
24892;BME280;12954;50.688;10.908;2022-10-03T13:51:51;96486.03;;;12.97;49.90
24892;BME280;12954;50.688;10.908;2022-10-03T13:54:45;96478.44;;;12.94;49.43
24892;BME280;12954;50.688;10.908;2022-10-03T13:57:22;96486.88;;;12.88;49.70
24892;BME280;12954;50.688;10.908;2022-10-03T13:59:57;96482.25;;;12.88;49.94
24892;BME280;12954;50.688;10.908;2022-10-03T14:08:31;96469.00;;;12.56;50.10
24892;BME280;12954;50.688;10.908;2022-10-03T14:11:16;96490.41;;;12.63;50.26
24892;BME280;12954;50.688;10.908;2022-10-03T14:14:06;96470.88;;;12.51;50.40
24892;BME280;12954;50.688;10.908;2022-10-03T14:16:40;96487.13;;;12.56;50.59
24892;BME280;12954;50.688;10.908;2022-10-03T14:19:16;96485.53;;;12.55;50.66
24892;BME280;12954;50.688;10.908;2022-10-03T14:21:57;96490.41;;;12.58;50.54
24892;BME280;12954;50.688;10.908;2022-10-03T14:24:41;96502.28;;;12.52;50.58
24892;BME280;12954;50.688;10.908;2022-10-03T14:27:29;96500.63;;;12.51;50.80
24892;BME280;12954;50.688;10.908;2022-10-03T14:30:03;96503.88;;;12.53;50.70
24892;BME280;12954;50.688;10.908;2022-10-03T14:32:42;96489.25;;;12.39;51.00
24892;BME280;12954;50.688;10.908;2022-10-03T14:35:25;96495.22;;;12.31;51.30
24892;BME280;12954;50.688;10.908;2022-10-03T14:38:02;96485.44;;;12.24;51.63
24892;BME280;12954;50.688;10.908;2022-10-03T14:40:37;96485.97;;;12.21;51.82
24892;BME280;12954;50.688;10.908;2022-10-03T14:43:30;96477.91;;;12.37;51.30
24892;BME280;12954;50.688;10.908;2022-10-03T14:46:03;96487.09;;;12.31;51.39
24892;BME280;12954;50.688;10.908;2022-10-03T14:48:36;96478.69;;;12.22;51.69
24892;BME280;12954;50.688;10.908;2022-10-03T14:51:10;96464.59;;;12.10;52.16
24892;BME280;12954;50.688;10.908;2022-10-03T14:53:46;96478.94;;;12.20;52.34
24892;BME280;12954;50.688;10.908;2022-10-03T14:56:19;96428.59;;;11.84;52.55
24892;BME280;12954;50.688;10.908;2022-10-03T14:58:51;96479.22;;;12.24;52.66
24892;BME280;12954;50.688;10.908;2022-10-03T15:01:23;96472.19;;;12.18;52.97
24892;BME280;12954;50.688;10.908;2022-10-03T15:04:00;96470.81;;;12.15;53.20
24892;BME280;12954;50.688;10.908;2022-10-03T15:09:27;96466.47;;;12.09;53.67
24892;BME280;12954;50.688;10.908;2022-10-03T15:12:05;96461.09;;;12.14;53.73
24892;BME280;12954;50.688;10.908;2022-10-03T15:14:38;96463.28;;;12.22;53.74
24892;BME280;12954;50.688;10.908;2022-10-03T15:17:18;96437.00;;;12.08;53.16
24892;BME280;12954;50.688;10.908;2022-10-03T15:19:51;96447.78;;;11.98;53.44
24892;BME280;12954;50.688;10.908;2022-10-03T15:22:28;96438.28;;;11.85;53.59
24892;BME280;12954;50.688;10.908;2022-10-03T15:25:04;96455.13;;;12.02;53.62
24892;BME280;12954;50.688;10.908;2022-10-03T15:27:34;96452.44;;;12.12;53.04
24892;BME280;12954;50.688;10.908;2022-10-03T15:30:18;96442.38;;;11.98;53.10
24892;BME280;12954;50.688;10.908;2022-10-03T15:32:50;96449.69;;;11.92;53.18
24892;BME280;12954;50.688;10.908;2022-10-03T15:35:23;96454.56;;;11.90;53.27
24892;BME280;12954;50.688;10.908;2022-10-03T15:37:53;96448.84;;;11.82;53.85
24892;BME280;12954;50.688;10.908;2022-10-03T15:40:30;96443.97;;;11.79;53.49
24892;BME280;12954;50.688;10.908;2022-10-03T15:43:04;96336.47;;;11.19;52.84
24892;BME280;12954;50.688;10.908;2022-10-03T15:45:36;96459.41;;;11.88;53.17
24892;BME280;12954;50.688;10.908;2022-10-03T15:48:10;96453.16;;;11.78;53.67
24892;BME280;12954;50.688;10.908;2022-10-03T15:50:40;96456.94;;;11.77;53.78
24892;BME280;12954;50.688;10.908;2022-10-03T15:53:15;96462.59;;;11.70;53.86
24892;BME280;12954;50.688;10.908;2022-10-03T15:56:11;96459.34;;;11.68;54.23
24892;BME280;12954;50.688;10.908;2022-10-03T15:58:46;96434.94;;;11.53;54.41
24892;BME280;12954;50.688;10.908;2022-10-03T16:01:18;96462.28;;;11.56;54.46
24892;BME280;12954;50.688;10.908;2022-10-03T16:03:52;96456.56;;;11.53;54.55
24892;BME280;12954;50.688;10.908;2022-10-03T16:06:24;96444.06;;;11.37;54.79
24892;BME280;12954;50.688;10.908;2022-10-03T16:09:04;96454.97;;;11.52;55.04
24892;BME280;12954;50.688;10.908;2022-10-03T16:11:40;96454.97;;;11.52;55.22
24892;BME280;12954;50.688;10.908;2022-10-03T16:14:16;96463.06;;;11.52;55.28
24892;BME280;12954;50.688;10.908;2022-10-03T16:16:48;96443.25;;;11.36;55.31
24892;BME280;12954;50.688;10.908;2022-10-03T16:19:27;96463.31;;;11.50;55.39
24892;BME280;12954;50.688;10.908;2022-10-03T16:22:09;96448.66;;;11.41;55.26
24892;BME280;12954;50.688;10.908;2022-10-03T16:24:56;96453.81;;;11.38;55.25
24892;BME280;12954;50.688;10.908;2022-10-03T16:27:27;96461.84;;;11.33;55.38
24892;BME280;12954;50.688;10.908;2022-10-03T16:30:14;96463.78;;;11.32;55.73
24892;BME280;12954;50.688;10.908;2022-10-03T16:32:49;96460.78;;;11.29;55.76
24892;BME280;12954;50.688;10.908;2022-10-03T16:35:29;96465.09;;;11.30;56.11
24892;BME280;12954;50.688;10.908;2022-10-03T16:38:01;96452.63;;;11.24;56.19
24892;BME280;12954;50.688;10.908;2022-10-03T16:40:32;96461.25;;;11.21;56.30
24892;BME280;12954;50.688;10.908;2022-10-03T16:43:04;96458.81;;;11.14;56.39
24892;BME280;12954;50.688;10.908;2022-10-03T16:45:40;96458.75;;;11.09;56.24
24892;BME280;12954;50.688;10.908;2022-10-03T16:48:16;96456.56;;;11.06;56.33
24892;BME280;12954;50.688;10.908;2022-10-03T16:51:06;96430.22;;;10.76;56.42
24892;BME280;12954;50.688;10.908;2022-10-03T16:53:42;96460.06;;;10.96;56.47
24892;BME280;12954;50.688;10.908;2022-10-03T16:56:14;96458.41;;;10.95;56.73
24892;BME280;12954;50.688;10.908;2022-10-03T16:58:48;96450.84;;;10.92;56.69
24892;BME280;12954;50.688;10.908;2022-10-03T17:01:30;96425.81;;;10.65;56.76
24892;BME280;12954;50.688;10.908;2022-10-03T17:04:18;96459.97;;;10.86;56.95
24892;BME280;12954;50.688;10.908;2022-10-03T17:06:50;96451.84;;;10.81;56.97
24892;BME280;12954;50.688;10.908;2022-10-03T17:09:25;96454.78;;;10.80;57.10
24892;BME280;12954;50.688;10.908;2022-10-03T17:11:56;96452.91;;;10.80;57.23
24892;BME280;12954;50.688;10.908;2022-10-03T17:14:29;96448.31;;;10.76;57.40
24892;BME280;12954;50.688;10.908;2022-10-03T17:17:04;96365.31;;;10.19;57.43
24892;BME280;12954;50.688;10.908;2022-10-03T17:19:37;96447.72;;;10.69;57.62
24892;BME280;12954;50.688;10.908;2022-10-03T17:22:15;96450.09;;;10.65;57.50
24892;BME280;12954;50.688;10.908;2022-10-03T17:24:47;96447.38;;;10.60;57.84
24892;BME280;12954;50.688;10.908;2022-10-03T17:27:22;96450.59;;;10.57;58.07
24892;BME280;12954;50.688;10.908;2022-10-03T17:29:58;96414.81;;;10.35;58.07
24892;BME280;12954;50.688;10.908;2022-10-03T17:32:34;96460.31;;;10.58;58.10